sensor_id;sensor_type;location;lat;lon;timestamp;P1;durP1;ratioP1;P2;durP2;ratioP2
56381;SDS011;50261;51.150;4.470;2023-02-26T00:02:07;8.43;;;3.65;;
56381;SDS011;50261;51.150;4.470;2023-02-26T00:04:35;12.68;;;3.35;;
56381;SDS011;50261;51.150;4.470;2023-02-26T00:07:01;9.68;;;3.40;;
56381;SDS011;50261;51.150;4.470;2023-02-26T00:09:29;16.88;;;4.03;;
56381;SDS011;50261;51.150;4.470;2023-02-26T00:11:55;8.30;;;3.33;;
56381;SDS011;50261;51.150;4.470;2023-02-26T00:14:21;10.80;;;3.60;;
56381;SDS011;50261;51.150;4.470;2023-02-26T00:17:32;11.88;;;3.90;;
56381;SDS011;50261;51.150;4.470;2023-02-26T00:19:33;17.13;;;4.03;;
56381;SDS011;50261;51.150;4.470;2023-02-26T00:21:59;11.73;;;4.00;;
56381;SDS011;50261;51.150;4.470;2023-02-26T00:24:25;10.55;;;3.78;;
56381;SDS011;50261;51.150;4.470;2023-02-26T00:26:50;10.13;;;4.15;;
56381;SDS011;50261;51.150;4.470;2023-02-26T00:29:16;11.65;;;3.53;;
56381;SDS011;50261;51.150;4.470;2023-02-26T00:31:42;11.63;;;3.88;;
56381;SDS011;50261;51.150;4.470;2023-02-26T00:34:10;13.88;;;4.10;;
56381;SDS011;50261;51.150;4.470;2023-02-26T00:36:42;9.15;;;3.95;;
56381;SDS011;50261;51.150;4.470;2023-02-26T00:41:54;9.15;;;3.40;;
56381;SDS011;50261;51.150;4.470;2023-02-26T00:44:20;12.57;;;3.80;;
56381;SDS011;50261;51.150;4.470;2023-02-26T00:49:17;15.00;;;4.13;;
56381;SDS011;50261;51.150;4.470;2023-02-26T00:51:51;9.65;;;3.28;;
56381;SDS011;50261;51.150;4.470;2023-02-26T00:54:22;10.40;;;3.15;;
56381;SDS011;50261;51.150;4.470;2023-02-26T00:56:50;12.90;;;3.50;;
56381;SDS011;50261;51.150;4.470;2023-02-26T00:59:16;10.60;;;3.30;;
56381;SDS011;50261;51.150;4.470;2023-02-26T01:01:42;6.03;;;2.75;;
56381;SDS011;50261;51.150;4.470;2023-02-26T01:04:09;8.18;;;3.15;;
56381;SDS011;50261;51.150;4.470;2023-02-26T01:06:36;9.50;;;3.00;;
56381;SDS011;50261;51.150;4.470;2023-02-26T01:11:32;7.30;;;3.05;;
56381;SDS011;50261;51.150;4.470;2023-02-26T01:13:58;9.73;;;2.92;;
56381;SDS011;50261;51.150;4.470;2023-02-26T01:16:26;12.35;;;3.42;;
56381;SDS011;50261;51.150;4.470;2023-02-26T01:18:55;8.90;;;2.97;;
56381;SDS011;50261;51.150;4.470;2023-02-26T01:21:30;11.57;;;2.95;;
56381;SDS011;50261;51.150;4.470;2023-02-26T01:23:57;9.48;;;2.58;;
56381;SDS011;50261;51.150;4.470;2023-02-26T01:26:25;10.75;;;3.13;;
56381;SDS011;50261;51.150;4.470;2023-02-26T01:28:51;6.90;;;2.97;;
56381;SDS011;50261;51.150;4.470;2023-02-26T01:34:04;8.43;;;2.55;;
56381;SDS011;50261;51.150;4.470;2023-02-26T01:36:32;8.13;;;2.65;;
56381;SDS011;50261;51.150;4.470;2023-02-26T01:41:57;9.00;;;2.95;;
56381;SDS011;50261;51.150;4.470;2023-02-26T01:49:25;10.77;;;2.60;;
56381;SDS011;50261;51.150;4.470;2023-02-26T01:51:52;9.05;;;2.72;;
56381;SDS011;50261;51.150;4.470;2023-02-26T01:54:19;7.35;;;2.70;;
56381;SDS011;50261;51.150;4.470;2023-02-26T01:56:46;7.57;;;2.78;;
56381;SDS011;50261;51.150;4.470;2023-02-26T01:59:13;10.73;;;2.90;;
56381;SDS011;50261;51.150;4.470;2023-02-26T02:01:40;10.40;;;2.72;;
56381;SDS011;50261;51.150;4.470;2023-02-26T02:04:07;6.35;;;2.28;;
56381;SDS011;50261;51.150;4.470;2023-02-26T02:06:34;10.60;;;3.13;;
56381;SDS011;50261;51.150;4.470;2023-02-26T02:09:01;7.30;;;2.42;;
56381;SDS011;50261;51.150;4.470;2023-02-26T02:11:27;8.57;;;2.47;;
56381;SDS011;50261;51.150;4.470;2023-02-26T02:16:55;10.35;;;2.78;;
56381;SDS011;50261;51.150;4.470;2023-02-26T02:22:19;12.80;;;3.35;;
56381;SDS011;50261;51.150;4.470;2023-02-26T02:35:12;8.15;;;2.20;;
56381;SDS011;50261;51.150;4.470;2023-02-26T02:40:29;8.07;;;2.30;;
56381;SDS011;50261;51.150;4.470;2023-02-26T02:47:58;7.20;;;2.40;;
56381;SDS011;50261;51.150;4.470;2023-02-26T02:50:30;6.18;;;1.88;;
56381;SDS011;50261;51.150;4.470;2023-02-26T02:53:00;6.88;;;2.22;;
56381;SDS011;50261;51.150;4.470;2023-02-26T02:55:35;5.05;;;2.30;;
56381;SDS011;50261;51.150;4.470;2023-02-26T02:58:05;7.38;;;1.98;;
56381;SDS011;50261;51.150;4.470;2023-02-26T03:00:36;6.43;;;2.00;;
56381;SDS011;50261;51.150;4.470;2023-02-26T03:05:31;7.65;;;2.17;;
56381;SDS011;50261;51.150;4.470;2023-02-26T03:08:01;5.82;;;2.28;;
56381;SDS011;50261;51.150;4.470;2023-02-26T03:10:28;6.07;;;1.85;;
56381;SDS011;50261;51.150;4.470;2023-02-26T03:12:53;6.63;;;2.03;;
56381;SDS011;50261;51.150;4.470;2023-02-26T03:15:25;8.50;;;2.17;;
56381;SDS011;50261;51.150;4.470;2023-02-26T03:17:57;11.18;;;2.40;;
56381;SDS011;50261;51.150;4.470;2023-02-26T03:20:27;7.97;;;2.17;;
56381;SDS011;50261;51.150;4.470;2023-02-26T03:23:00;6.00;;;2.30;;
56381;SDS011;50261;51.150;4.470;2023-02-26T03:25:30;7.28;;;2.10;;
56381;SDS011;50261;51.150;4.470;2023-02-26T03:30:29;6.55;;;2.35;;
56381;SDS011;50261;51.150;4.470;2023-02-26T03:32:59;7.72;;;2.42;;
56381;SDS011;50261;51.150;4.470;2023-02-26T03:35:35;6.13;;;2.15;;
56381;SDS011;50261;51.150;4.470;2023-02-26T03:38:05;7.30;;;1.92;;
56381;SDS011;50261;51.150;4.470;2023-02-26T03:40:49;8.20;;;2.05;;
56381;SDS011;50261;51.150;4.470;2023-02-26T03:43:18;6.40;;;1.70;;
56381;SDS011;50261;51.150;4.470;2023-02-26T03:45:47;6.30;;;1.70;;
56381;SDS011;50261;51.150;4.470;2023-02-26T03:48:14;7.95;;;2.22;;
56381;SDS011;50261;51.150;4.470;2023-02-26T03:50:51;8.82;;;1.50;;
56381;SDS011;50261;51.150;4.470;2023-02-26T03:56:32;5.72;;;1.90;;
56381;SDS011;50261;51.150;4.470;2023-02-26T03:59:17;3.40;;;1.15;;
56381;SDS011;50261;51.150;4.470;2023-02-26T04:04:33;4.82;;;1.63;;
56381;SDS011;50261;51.150;4.470;2023-02-26T04:07:00;6.50;;;1.65;;
56381;SDS011;50261;51.150;4.470;2023-02-26T04:09:26;6.60;;;1.73;;
56381;SDS011;50261;51.150;4.470;2023-02-26T04:11:53;4.28;;;1.60;;
56381;SDS011;50261;51.150;4.470;2023-02-26T04:14:20;4.72;;;1.55;;
56381;SDS011;50261;51.150;4.470;2023-02-26T04:16:46;8.05;;;1.70;;
56381;SDS011;50261;51.150;4.470;2023-02-26T04:19:12;8.70;;;1.70;;
56381;SDS011;50261;51.150;4.470;2023-02-26T04:21:39;5.10;;;1.30;;
56381;SDS011;50261;51.150;4.470;2023-02-26T04:24:05;5.03;;;1.55;;
56381;SDS011;50261;51.150;4.470;2023-02-26T04:26:32;4.57;;;1.20;;
56381;SDS011;50261;51.150;4.470;2023-02-26T04:28:58;4.70;;;1.17;;
56381;SDS011;50261;51.150;4.470;2023-02-26T04:31:24;4.00;;;1.08;;
56381;SDS011;50261;51.150;4.470;2023-02-26T04:33:50;7.88;;;1.52;;
56381;SDS011;50261;51.150;4.470;2023-02-26T04:36:16;4.88;;;1.50;;
56381;SDS011;50261;51.150;4.470;2023-02-26T04:38:41;6.88;;;1.40;;
56381;SDS011;50261;51.150;4.470;2023-02-26T04:41:07;6.25;;;1.77;;
56381;SDS011;50261;51.150;4.470;2023-02-26T04:43:34;8.20;;;1.20;;
56381;SDS011;50261;51.150;4.470;2023-02-26T04:46:26;6.47;;;1.58;;
56381;SDS011;50261;51.150;4.470;2023-02-26T04:48:52;5.63;;;1.83;;
56381;SDS011;50261;51.150;4.470;2023-02-26T04:51:19;5.40;;;1.30;;
56381;SDS011;50261;51.150;4.470;2023-02-26T04:53:44;4.65;;;1.10;;
56381;SDS011;50261;51.150;4.470;2023-02-26T04:56:10;7.40;;;1.25;;
56381;SDS011;50261;51.150;4.470;2023-02-26T04:58:36;7.80;;;1.33;;
56381;SDS011;50261;51.150;4.470;2023-02-26T05:01:06;4.38;;;1.23;;
56381;SDS011;50261;51.150;4.470;2023-02-26T05:03:32;5.07;;;1.27;;
56381;SDS011;50261;51.150;4.470;2023-02-26T05:05:58;6.40;;;1.52;;
56381;SDS011;50261;51.150;4.470;2023-02-26T05:08:24;7.93;;;1.80;;
56381;SDS011;50261;51.150;4.470;2023-02-26T05:10:51;4.88;;;1.40;;
56381;SDS011;50261;51.150;4.470;2023-02-26T05:13:19;8.32;;;1.40;;
56381;SDS011;50261;51.150;4.470;2023-02-26T05:15:44;6.72;;;1.90;;
56381;SDS011;50261;51.150;4.470;2023-02-26T05:18:11;9.80;;;1.50;;
56381;SDS011;50261;51.150;4.470;2023-02-26T05:20:37;9.23;;;1.67;;
56381;SDS011;50261;51.150;4.470;2023-02-26T05:23:03;9.30;;;1.67;;
56381;SDS011;50261;51.150;4.470;2023-02-26T05:25:29;8.43;;;1.42;;
56381;SDS011;50261;51.150;4.470;2023-02-26T05:27:55;4.97;;;1.40;;
56381;SDS011;50261;51.150;4.470;2023-02-26T05:30:21;6.45;;;1.30;;
56381;SDS011;50261;51.150;4.470;2023-02-26T05:32:47;6.13;;;1.60;;
56381;SDS011;50261;51.150;4.470;2023-02-26T05:35:13;5.45;;;1.40;;
56381;SDS011;50261;51.150;4.470;2023-02-26T05:37:39;7.78;;;1.65;;
56381;SDS011;50261;51.150;4.470;2023-02-26T05:40:06;6.00;;;1.10;;
56381;SDS011;50261;51.150;4.470;2023-02-26T05:42:35;6.68;;;1.63;;
56381;SDS011;50261;51.150;4.470;2023-02-26T05:45:01;2.92;;;1.50;;
56381;SDS011;50261;51.150;4.470;2023-02-26T05:47:26;6.18;;;1.30;;
56381;SDS011;50261;51.150;4.470;2023-02-26T05:49:52;5.28;;;1.20;;
56381;SDS011;50261;51.150;4.470;2023-02-26T05:52:18;6.88;;;1.20;;
56381;SDS011;50261;51.150;4.470;2023-02-26T05:54:43;8.45;;;1.20;;
56381;SDS011;50261;51.150;4.470;2023-02-26T05:57:09;6.85;;;1.20;;
56381;SDS011;50261;51.150;4.470;2023-02-26T05:59:35;3.50;;;0.80;;
56381;SDS011;50261;51.150;4.470;2023-02-26T06:02:03;5.75;;;1.02;;
56381;SDS011;50261;51.150;4.470;2023-02-26T06:04:28;7.75;;;1.50;;
56381;SDS011;50261;51.150;4.470;2023-02-26T06:06:54;7.75;;;0.95;;
56381;SDS011;50261;51.150;4.470;2023-02-26T06:09:20;7.07;;;1.25;;
56381;SDS011;50261;51.150;4.470;2023-02-26T06:11:46;3.38;;;0.80;;
56381;SDS011;50261;51.150;4.470;2023-02-26T06:14:11;5.80;;;1.17;;
56381;SDS011;50261;51.150;4.470;2023-02-26T06:16:36;6.43;;;1.58;;
56381;SDS011;50261;51.150;4.470;2023-02-26T06:19:02;2.00;;;1.00;;
56381;SDS011;50261;51.150;4.470;2023-02-26T06:21:28;3.80;;;0.95;;
56381;SDS011;50261;51.150;4.470;2023-02-26T06:23:53;9.30;;;1.08;;
56381;SDS011;50261;51.150;4.470;2023-02-26T06:26:19;6.68;;;0.80;;
56381;SDS011;50261;51.150;4.470;2023-02-26T06:28:44;4.70;;;1.67;;
56381;SDS011;50261;51.150;4.470;2023-02-26T06:31:10;4.47;;;1.20;;
56381;SDS011;50261;51.150;4.470;2023-02-26T06:33:35;5.47;;;0.93;;
56381;SDS011;50261;51.150;4.470;2023-02-26T06:36:01;4.03;;;1.00;;
56381;SDS011;50261;51.150;4.470;2023-02-26T06:38:27;6.25;;;1.20;;
56381;SDS011;50261;51.150;4.470;2023-02-26T06:40:53;5.32;;;0.82;;
56381;SDS011;50261;51.150;4.470;2023-02-26T06:43:19;5.45;;;0.93;;
56381;SDS011;50261;51.150;4.470;2023-02-26T06:45:45;3.15;;;1.00;;
56381;SDS011;50261;51.150;4.470;2023-02-26T06:48:10;7.57;;;1.33;;
56381;SDS011;50261;51.150;4.470;2023-02-26T06:50:36;7.85;;;2.33;;
56381;SDS011;50261;51.150;4.470;2023-02-26T06:53:02;5.30;;;1.02;;
56381;SDS011;50261;51.150;4.470;2023-02-26T06:55:28;5.68;;;1.17;;
56381;SDS011;50261;51.150;4.470;2023-02-26T06:57:54;4.38;;;1.00;;
56381;SDS011;50261;51.150;4.470;2023-02-26T07:00:20;3.63;;;0.93;;
56381;SDS011;50261;51.150;4.470;2023-02-26T07:02:46;5.53;;;0.95;;
56381;SDS011;50261;51.150;4.470;2023-02-26T07:05:11;2.40;;;0.80;;
56381;SDS011;50261;51.150;4.470;2023-02-26T07:07:37;3.20;;;1.02;;
56381;SDS011;50261;51.150;4.470;2023-02-26T07:10:03;6.82;;;1.00;;
56381;SDS011;50261;51.150;4.470;2023-02-26T07:12:29;3.90;;;1.00;;
56381;SDS011;50261;51.150;4.470;2023-02-26T07:14:54;5.05;;;1.13;;
56381;SDS011;50261;51.150;4.470;2023-02-26T07:17:20;1.55;;;0.77;;
56381;SDS011;50261;51.150;4.470;2023-02-26T07:19:47;4.50;;;0.95;;
56381;SDS011;50261;51.150;4.470;2023-02-26T07:22:14;2.60;;;1.02;;
56381;SDS011;50261;51.150;4.470;2023-02-26T07:24:40;7.47;;;1.20;;
56381;SDS011;50261;51.150;4.470;2023-02-26T07:27:06;4.28;;;0.90;;
56381;SDS011;50261;51.150;4.470;2023-02-26T07:29:32;4.32;;;1.27;;
56381;SDS011;50261;51.150;4.470;2023-02-26T07:31:58;5.53;;;1.27;;
56381;SDS011;50261;51.150;4.470;2023-02-26T07:34:23;4.47;;;1.40;;
56381;SDS011;50261;51.150;4.470;2023-02-26T07:36:49;5.50;;;1.33;;
56381;SDS011;50261;51.150;4.470;2023-02-26T07:39:17;5.72;;;1.10;;
56381;SDS011;50261;51.150;4.470;2023-02-26T07:41:43;3.10;;;1.00;;
56381;SDS011;50261;51.150;4.470;2023-02-26T07:44:13;4.93;;;1.05;;
56381;SDS011;50261;51.150;4.470;2023-02-26T07:46:42;4.60;;;1.02;;
56381;SDS011;50261;51.150;4.470;2023-02-26T07:49:08;5.68;;;1.30;;
56381;SDS011;50261;51.150;4.470;2023-02-26T07:51:34;9.07;;;1.30;;
56381;SDS011;50261;51.150;4.470;2023-02-26T07:54:01;7.88;;;1.23;;
56381;SDS011;50261;51.150;4.470;2023-02-26T07:56:27;4.18;;;1.08;;
56381;SDS011;50261;51.150;4.470;2023-02-26T07:58:53;4.00;;;1.20;;
56381;SDS011;50261;51.150;4.470;2023-02-26T08:01:19;6.95;;;1.23;;
56381;SDS011;50261;51.150;4.470;2023-02-26T08:03:44;4.20;;;1.33;;
56381;SDS011;50261;51.150;4.470;2023-02-26T08:06:10;4.68;;;1.17;;
56381;SDS011;50261;51.150;4.470;2023-02-26T08:08:36;3.13;;;1.15;;
56381;SDS011;50261;51.150;4.470;2023-02-26T08:11:02;3.85;;;0.93;;
56381;SDS011;50261;51.150;4.470;2023-02-26T08:13:27;3.50;;;0.90;;
56381;SDS011;50261;51.150;4.470;2023-02-26T08:15:53;4.15;;;1.13;;
56381;SDS011;50261;51.150;4.470;2023-02-26T08:18:19;3.70;;;0.80;;
56381;SDS011;50261;51.150;4.470;2023-02-26T08:20:45;2.55;;;0.80;;
56381;SDS011;50261;51.150;4.470;2023-02-26T08:23:10;6.35;;;1.08;;
56381;SDS011;50261;51.150;4.470;2023-02-26T08:25:37;4.13;;;1.08;;
56381;SDS011;50261;51.150;4.470;2023-02-26T08:28:03;3.63;;;0.68;;
56381;SDS011;50261;51.150;4.470;2023-02-26T08:30:29;2.47;;;0.80;;
56381;SDS011;50261;51.150;4.470;2023-02-26T08:32:55;5.35;;;0.85;;
56381;SDS011;50261;51.150;4.470;2023-02-26T08:35:20;3.38;;;1.00;;
56381;SDS011;50261;51.150;4.470;2023-02-26T08:37:46;4.00;;;0.80;;
56381;SDS011;50261;51.150;4.470;2023-02-26T08:40:12;5.65;;;0.98;;
56381;SDS011;50261;51.150;4.470;2023-02-26T08:42:38;2.50;;;1.20;;
56381;SDS011;50261;51.150;4.470;2023-02-26T08:45:04;6.72;;;0.90;;
56381;SDS011;50261;51.150;4.470;2023-02-26T08:47:30;5.63;;;0.90;;
56381;SDS011;50261;51.150;4.470;2023-02-26T08:49:56;3.45;;;0.73;;
56381;SDS011;50261;51.150;4.470;2023-02-26T08:52:23;4.57;;;0.88;;
56381;SDS011;50261;51.150;4.470;2023-02-26T08:54:49;2.00;;;1.10;;
56381;SDS011;50261;51.150;4.470;2023-02-26T08:57:14;3.80;;;0.55;;
56381;SDS011;50261;51.150;4.470;2023-02-26T08:59:40;4.25;;;0.82;;
56381;SDS011;50261;51.150;4.470;2023-02-26T09:02:06;2.42;;;0.60;;
56381;SDS011;50261;51.150;4.470;2023-02-26T09:04:34;6.18;;;1.10;;
56381;SDS011;50261;51.150;4.470;2023-02-26T09:07:00;4.72;;;1.10;;
56381;SDS011;50261;51.150;4.470;2023-02-26T09:09:25;5.80;;;1.00;;
56381;SDS011;50261;51.150;4.470;2023-02-26T09:11:51;1.95;;;0.80;;
56381;SDS011;50261;51.150;4.470;2023-02-26T09:14:16;5.15;;;0.88;;
56381;SDS011;50261;51.150;4.470;2023-02-26T09:16:42;4.75;;;0.88;;
56381;SDS011;50261;51.150;4.470;2023-02-26T09:19:08;4.35;;;1.23;;
56381;SDS011;50261;51.150;4.470;2023-02-26T09:21:34;2.65;;;0.70;;
56381;SDS011;50261;51.150;4.470;2023-02-26T09:24:00;3.22;;;1.00;;
56381;SDS011;50261;51.150;4.470;2023-02-26T09:26:26;4.10;;;0.90;;
56381;SDS011;50261;51.150;4.470;2023-02-26T09:28:51;3.03;;;0.88;;
56381;SDS011;50261;51.150;4.470;2023-02-26T09:31:17;2.92;;;1.00;;
56381;SDS011;50261;51.150;4.470;2023-02-26T09:33:43;2.25;;;0.70;;
56381;SDS011;50261;51.150;4.470;2023-02-26T09:36:09;1.52;;;0.50;;
56381;SDS011;50261;51.150;4.470;2023-02-26T09:38:34;3.75;;;0.65;;
56381;SDS011;50261;51.150;4.470;2023-02-26T09:41:16;3.95;;;0.70;;
56381;SDS011;50261;51.150;4.470;2023-02-26T09:46:32;1.85;;;0.70;;
56381;SDS011;50261;51.150;4.470;2023-02-26T09:49:01;3.88;;;0.73;;
56381;SDS011;50261;51.150;4.470;2023-02-26T09:51:27;4.47;;;0.88;;
56381;SDS011;50261;51.150;4.470;2023-02-26T09:53:54;2.25;;;0.90;;
56381;SDS011;50261;51.150;4.470;2023-02-26T09:56:22;3.65;;;0.95;;
56381;SDS011;50261;51.150;4.470;2023-02-26T09:58:48;2.53;;;0.80;;
56381;SDS011;50261;51.150;4.470;2023-02-26T10:09:17;5.63;;;0.93;;
56381;SDS011;50261;51.150;4.470;2023-02-26T10:11:58;4.10;;;0.63;;
56381;SDS011;50261;51.150;4.470;2023-02-26T10:17:26;2.05;;;0.50;;
56381;SDS011;50261;51.150;4.470;2023-02-26T10:19:54;2.72;;;0.70;;
56381;SDS011;50261;51.150;4.470;2023-02-26T10:22:32;2.78;;;0.57;;
56381;SDS011;50261;51.150;4.470;2023-02-26T10:25:01;3.65;;;0.90;;
56381;SDS011;50261;51.150;4.470;2023-02-26T10:27:35;4.25;;;0.82;;
56381;SDS011;50261;51.150;4.470;2023-02-26T10:32:29;4.32;;;0.70;;
56381;SDS011;50261;51.150;4.470;2023-02-26T10:35:02;2.30;;;0.50;;
56381;SDS011;50261;51.150;4.470;2023-02-26T10:42:49;3.80;;;0.90;;
56381;SDS011;50261;51.150;4.470;2023-02-26T10:50:32;2.65;;;0.90;;
56381;SDS011;50261;51.150;4.470;2023-02-26T10:52:58;2.42;;;0.70;;
56381;SDS011;50261;51.150;4.470;2023-02-26T10:58:13;2.92;;;0.60;;
56381;SDS011;50261;51.150;4.470;2023-02-26T11:00:41;5.82;;;2.42;;
56381;SDS011;50261;51.150;4.470;2023-02-26T11:03:07;4.97;;;2.30;;
56381;SDS011;50261;51.150;4.470;2023-02-26T11:05:35;5.05;;;2.22;;
56381;SDS011;50261;51.150;4.470;2023-02-26T11:08:04;2.03;;;0.93;;
56381;SDS011;50261;51.150;4.470;2023-02-26T11:10:41;1.63;;;0.50;;
56381;SDS011;50261;51.150;4.470;2023-02-26T11:15:32;2.58;;;0.50;;
56381;SDS011;50261;51.150;4.470;2023-02-26T11:17:58;1.77;;;0.70;;
56381;SDS011;50261;51.150;4.470;2023-02-26T11:20:29;2.15;;;0.60;;
56381;SDS011;50261;51.150;4.470;2023-02-26T11:22:54;3.35;;;0.60;;
56381;SDS011;50261;51.150;4.470;2023-02-26T11:25:23;3.53;;;0.70;;
56381;SDS011;50261;51.150;4.470;2023-02-26T11:27:52;1.80;;;0.60;;
56381;SDS011;50261;51.150;4.470;2023-02-26T11:30:19;2.55;;;0.30;;
56381;SDS011;50261;51.150;4.470;2023-02-26T11:32:49;2.47;;;0.52;;
56381;SDS011;50261;51.150;4.470;2023-02-26T11:35:16;2.40;;;0.77;;
56381;SDS011;50261;51.150;4.470;2023-02-26T11:37:45;2.50;;;0.60;;
56381;SDS011;50261;51.150;4.470;2023-02-26T11:40:13;3.90;;;0.60;;
56381;SDS011;50261;51.150;4.470;2023-02-26T11:42:43;2.25;;;0.70;;
56381;SDS011;50261;51.150;4.470;2023-02-26T11:45:12;2.47;;;0.52;;
56381;SDS011;50261;51.150;4.470;2023-02-26T11:47:38;2.47;;;0.73;;
56381;SDS011;50261;51.150;4.470;2023-02-26T11:50:09;2.35;;;0.55;;
56381;SDS011;50261;51.150;4.470;2023-02-26T11:52:42;2.65;;;0.80;;
56381;SDS011;50261;51.150;4.470;2023-02-26T11:55:20;2.88;;;0.65;;
56381;SDS011;50261;51.150;4.470;2023-02-26T11:57:49;3.42;;;1.20;;
56381;SDS011;50261;51.150;4.470;2023-02-26T12:00:19;2.70;;;1.10;;
56381;SDS011;50261;51.150;4.470;2023-02-26T12:02:45;1.08;;;0.50;;
56381;SDS011;50261;51.150;4.470;2023-02-26T12:05:13;2.97;;;0.80;;
56381;SDS011;50261;51.150;4.470;2023-02-26T12:07:40;3.95;;;0.60;;
56381;SDS011;50261;51.150;4.470;2023-02-26T12:10:12;1.77;;;0.68;;
56381;SDS011;50261;51.150;4.470;2023-02-26T12:13:02;1.77;;;0.60;;
56381;SDS011;50261;51.150;4.470;2023-02-26T12:20:54;2.65;;;0.70;;
56381;SDS011;50261;51.150;4.470;2023-02-26T12:23:32;1.25;;;0.50;;
56381;SDS011;50261;51.150;4.470;2023-02-26T12:26:15;2.25;;;0.60;;
56381;SDS011;50261;51.150;4.470;2023-02-26T12:28:55;2.15;;;0.57;;
56381;SDS011;50261;51.150;4.470;2023-02-26T12:36:24;1.65;;;0.73;;
56381;SDS011;50261;51.150;4.470;2023-02-26T12:41:52;0.93;;;0.30;;
56381;SDS011;50261;51.150;4.470;2023-02-26T12:49:49;1.80;;;0.50;;
56381;SDS011;50261;51.150;4.470;2023-02-26T12:55:22;1.02;;;0.40;;
56381;SDS011;50261;51.150;4.470;2023-02-26T13:05:22;4.30;;;0.73;;
56381;SDS011;50261;51.150;4.470;2023-02-26T13:07:58;3.13;;;0.82;;
56381;SDS011;50261;51.150;4.470;2023-02-26T13:16:18;3.58;;;0.63;;
56381;SDS011;50261;51.150;4.470;2023-02-26T13:18:53;2.05;;;0.75;;
56381;SDS011;50261;51.150;4.470;2023-02-26T13:21:30;1.55;;;0.80;;
56381;SDS011;50261;51.150;4.470;2023-02-26T13:26:26;1.95;;;0.60;;
56381;SDS011;50261;51.150;4.470;2023-02-26T13:28:55;3.35;;;0.93;;
56381;SDS011;50261;51.150;4.470;2023-02-26T13:31:27;3.10;;;1.13;;
56381;SDS011;50261;51.150;4.470;2023-02-26T13:33:54;3.58;;;0.52;;
56381;SDS011;50261;51.150;4.470;2023-02-26T13:36:21;2.75;;;0.88;;
56381;SDS011;50261;51.150;4.470;2023-02-26T13:41:27;4.10;;;0.90;;
56381;SDS011;50261;51.150;4.470;2023-02-26T13:51:47;1.67;;;0.70;;
56381;SDS011;50261;51.150;4.470;2023-02-26T13:56:46;1.42;;;0.50;;
56381;SDS011;50261;51.150;4.470;2023-02-26T14:01:54;2.10;;;0.60;;
56381;SDS011;50261;51.150;4.470;2023-02-26T14:10:01;2.63;;;0.98;;
56381;SDS011;50261;51.150;4.470;2023-02-26T14:19:31;3.67;;;0.60;;
56381;SDS011;50261;51.150;4.470;2023-02-26T14:24:31;2.95;;;0.60;;
56381;SDS011;50261;51.150;4.470;2023-02-26T14:27:06;3.40;;;0.65;;
56381;SDS011;50261;51.150;4.470;2023-02-26T14:29:39;0.75;;;0.38;;
56381;SDS011;50261;51.150;4.470;2023-02-26T14:34:42;2.95;;;0.50;;
56381;SDS011;50261;51.150;4.470;2023-02-26T14:39:38;0.93;;;0.40;;
56381;SDS011;50261;51.150;4.470;2023-02-26T14:42:05;5.18;;;0.80;;
56381;SDS011;50261;51.150;4.470;2023-02-26T14:44:42;2.40;;;0.60;;
56381;SDS011;50261;51.150;4.470;2023-02-26T14:47:09;2.83;;;0.93;;
56381;SDS011;50261;51.150;4.470;2023-02-26T14:49:36;2.75;;;0.80;;
56381;SDS011;50261;51.150;4.470;2023-02-26T14:55:00;1.83;;;0.60;;
56381;SDS011;50261;51.150;4.470;2023-02-26T14:57:36;3.00;;;0.85;;
56381;SDS011;50261;51.150;4.470;2023-02-26T15:00:09;2.40;;;0.70;;
56381;SDS011;50261;51.150;4.470;2023-02-26T15:05:44;2.13;;;0.90;;
56381;SDS011;50261;51.150;4.470;2023-02-26T15:25:55;2.22;;;0.73;;
56381;SDS011;50261;51.150;4.470;2023-02-26T15:28:25;3.17;;;0.90;;
56381;SDS011;50261;51.150;4.470;2023-02-26T15:30:52;2.58;;;0.82;;
56381;SDS011;50261;51.150;4.470;2023-02-26T15:33:19;4.13;;;0.90;;
56381;SDS011;50261;51.150;4.470;2023-02-26T15:35:47;5.93;;;0.90;;
56381;SDS011;50261;51.150;4.470;2023-02-26T15:38:13;4.40;;;1.00;;
56381;SDS011;50261;51.150;4.470;2023-02-26T15:40:39;3.72;;;0.80;;
56381;SDS011;50261;51.150;4.470;2023-02-26T15:43:05;1.17;;;0.52;;
56381;SDS011;50261;51.150;4.470;2023-02-26T15:45:33;2.10;;;0.60;;
56381;SDS011;50261;51.150;4.470;2023-02-26T15:48:06;1.75;;;0.93;;
56381;SDS011;50261;51.150;4.470;2023-02-26T15:50:35;2.72;;;1.00;;
56381;SDS011;50261;51.150;4.470;2023-02-26T15:53:02;1.73;;;0.70;;
56381;SDS011;50261;51.150;4.470;2023-02-26T15:55:34;3.45;;;0.93;;
56381;SDS011;50261;51.150;4.470;2023-02-26T15:58:00;2.88;;;0.63;;
56381;SDS011;50261;51.150;4.470;2023-02-26T16:00:27;2.22;;;0.43;;
56381;SDS011;50261;51.150;4.470;2023-02-26T16:02:56;1.83;;;0.80;;
56381;SDS011;50261;51.150;4.470;2023-02-26T16:05:26;2.22;;;0.68;;
56381;SDS011;50261;51.150;4.470;2023-02-26T16:07:52;1.63;;;0.50;;
56381;SDS011;50261;51.150;4.470;2023-02-26T16:10:39;3.05;;;0.98;;
56381;SDS011;50261;51.150;4.470;2023-02-26T16:13:04;1.63;;;0.70;;
56381;SDS011;50261;51.150;4.470;2023-02-26T16:15:32;1.50;;;0.60;;
56381;SDS011;50261;51.150;4.470;2023-02-26T16:17:59;2.60;;;0.80;;
56381;SDS011;50261;51.150;4.470;2023-02-26T16:20:26;2.33;;;0.70;;
56381;SDS011;50261;51.150;4.470;2023-02-26T16:22:59;1.85;;;0.77;;
56381;SDS011;50261;51.150;4.470;2023-02-26T16:25:37;2.47;;;0.60;;
56381;SDS011;50261;51.150;4.470;2023-02-26T16:28:05;2.33;;;0.63;;
56381;SDS011;50261;51.150;4.470;2023-02-26T16:30:35;1.15;;;0.60;;
56381;SDS011;50261;51.150;4.470;2023-02-26T16:33:02;2.13;;;0.47;;
56381;SDS011;50261;51.150;4.470;2023-02-26T16:35:32;3.13;;;0.60;;
56381;SDS011;50261;51.150;4.470;2023-02-26T16:37:59;2.28;;;0.80;;
56381;SDS011;50261;51.150;4.470;2023-02-26T16:40:34;3.30;;;0.70;;
56381;SDS011;50261;51.150;4.470;2023-02-26T16:43:03;2.58;;;0.65;;
56381;SDS011;50261;51.150;4.470;2023-02-26T16:47:59;2.20;;;0.73;;
56381;SDS011;50261;51.150;4.470;2023-02-26T16:50:26;1.73;;;0.60;;
56381;SDS011;50261;51.150;4.470;2023-02-26T16:55:32;0.77;;;0.50;;
56381;SDS011;50261;51.150;4.470;2023-02-26T16:57:58;1.92;;;0.68;;
56381;SDS011;50261;51.150;4.470;2023-02-26T17:00:28;2.45;;;0.88;;
56381;SDS011;50261;51.150;4.470;2023-02-26T17:02:58;2.63;;;0.80;;
56381;SDS011;50261;51.150;4.470;2023-02-26T17:05:28;2.42;;;0.80;;
56381;SDS011;50261;51.150;4.470;2023-02-26T17:07:55;2.45;;;0.70;;
56381;SDS011;50261;51.150;4.470;2023-02-26T17:10:34;1.35;;;0.80;;
56381;SDS011;50261;51.150;4.470;2023-02-26T17:13:05;1.70;;;0.70;;
56381;SDS011;50261;51.150;4.470;2023-02-26T17:15:35;2.88;;;0.70;;
56381;SDS011;50261;51.150;4.470;2023-02-26T17:18:01;2.72;;;0.70;;
56381;SDS011;50261;51.150;4.470;2023-02-26T17:20:27;1.17;;;0.77;;
56381;SDS011;50261;51.150;4.470;2023-02-26T17:22:54;5.25;;;1.02;;
56381;SDS011;50261;51.150;4.470;2023-02-26T17:25:20;1.50;;;0.80;;
56381;SDS011;50261;51.150;4.470;2023-02-26T17:27:46;3.45;;;0.80;;
56381;SDS011;50261;51.150;4.470;2023-02-26T17:30:14;2.95;;;0.90;;
56381;SDS011;50261;51.150;4.470;2023-02-26T17:32:40;2.30;;;1.00;;
56381;SDS011;50261;51.150;4.470;2023-02-26T17:35:07;2.63;;;1.00;;
56381;SDS011;50261;51.150;4.470;2023-02-26T17:37:33;3.92;;;1.02;;
56381;SDS011;50261;51.150;4.470;2023-02-26T17:40:00;3.35;;;0.82;;
56381;SDS011;50261;51.150;4.470;2023-02-26T17:42:26;3.78;;;1.10;;
56381;SDS011;50261;51.150;4.470;2023-02-26T17:44:52;3.22;;;1.80;;
56381;SDS011;50261;51.150;4.470;2023-02-26T17:47:20;4.88;;;1.90;;
56381;SDS011;50261;51.150;4.470;2023-02-26T17:49:46;4.97;;;1.42;;
56381;SDS011;50261;51.150;4.470;2023-02-26T17:52:12;2.05;;;1.10;;
56381;SDS011;50261;51.150;4.470;2023-02-26T17:54:38;2.20;;;1.20;;
56381;SDS011;50261;51.150;4.470;2023-02-26T17:57:05;1.60;;;0.93;;
56381;SDS011;50261;51.150;4.470;2023-02-26T17:59:31;2.13;;;0.88;;